createdAt,value
2023-05-11T00:00:51.911Z,20.50
2023-05-11T00:03:18.812Z,24.03
2023-05-11T00:05:49.078Z,23.77
2023-05-11T00:08:17.390Z,21.03
2023-05-11T00:10:47.757Z,18.50
2023-05-11T00:13:14.644Z,21.70
2023-05-11T00:15:41.325Z,21.93
2023-05-11T00:18:07.906Z,20.37
2023-05-11T00:20:34.535Z,22.37
2023-05-11T00:23:01.306Z,19.20
2023-05-11T00:25:27.869Z,20.43
2023-05-11T00:27:54.524Z,21.50
2023-05-11T00:30:21.263Z,21.00
2023-05-11T00:32:49.206Z,18.20
2023-05-11T00:35:15.960Z,20.80
2023-05-11T00:37:42.532Z,18.83
2023-05-11T00:40:09.446Z,18.80
2023-05-11T00:42:36.268Z,18.10
2023-05-11T00:45:03.213Z,18.93
2023-05-11T00:47:30.358Z,18.90
2023-05-11T00:49:58.391Z,14.47
2023-05-11T00:52:25.275Z,17.70
2023-05-11T00:54:51.852Z,16.60
2023-05-11T00:57:18.753Z,20.03
2023-05-11T00:59:45.365Z,21.27
2023-05-11T01:02:12.061Z,18.13
2023-05-11T01:04:39.072Z,20.13
2023-05-11T01:07:24.267Z,20.80
2023-05-11T01:10:19.883Z,21.53
2023-05-11T01:13:14.848Z,19.57
2023-05-11T01:15:56.720Z,19.33
2023-05-11T01:18:35.111Z,19.30
2023-05-11T01:21:02.867Z,19.93
2023-05-11T01:23:49.996Z,22.93
2023-05-11T01:26:44.235Z,18.90
2023-05-11T01:29:10.904Z,23.07
2023-05-11T01:31:42.470Z,22.70
2023-05-11T01:34:17.118Z,20.97
2023-05-11T01:36:49.614Z,21.20
2023-05-11T01:39:21.011Z,20.10
2023-05-11T01:41:53.972Z,21.37
2023-05-11T01:44:25.891Z,18.93
2023-05-11T01:46:53.478Z,22.73
2023-05-11T01:49:21.876Z,24.83
2023-05-11T01:51:51.670Z,20.50
2023-05-11T01:54:19.568Z,24.27
2023-05-11T01:56:46.333Z,18.80
2023-05-11T01:59:14.481Z,14.87
2023-05-11T02:01:41.577Z,12.53
2023-05-11T02:04:09.904Z,11.57
2023-05-11T02:06:38.302Z,11.93
2023-05-11T02:09:07.798Z,13.43
2023-05-11T02:11:35.468Z,10.87
2023-05-11T02:14:05.289Z,14.57
2023-05-11T02:16:33.447Z,14.93
2023-05-11T02:19:00.563Z,11.80
2023-05-11T02:21:28.531Z,13.03
2023-05-11T02:23:56.786Z,13.50
2023-05-11T02:26:23.840Z,15.13
2023-05-11T02:28:50.659Z,13.33
2023-05-11T02:31:21.408Z,12.67
2023-05-11T02:33:52.419Z,13.70
2023-05-11T02:36:22.490Z,14.90
2023-05-11T02:38:54.967Z,13.83
2023-05-11T02:41:27.869Z,14.27
2023-05-11T02:43:56.994Z,15.17
2023-05-11T02:46:28.633Z,14.83
2023-05-11T02:48:58.280Z,14.33
2023-05-11T02:51:33.256Z,13.40
2023-05-11T02:54:01.709Z,13.13
2023-05-11T02:56:29.928Z,13.53
2023-05-11T02:58:56.601Z,14.17
2023-05-11T03:01:23.878Z,16.43
2023-05-11T03:03:50.836Z,12.17
2023-05-11T03:06:17.459Z,14.10
2023-05-11T03:08:44.142Z,14.83
2023-05-11T03:11:12.705Z,13.53
2023-05-11T03:13:39.505Z,14.57
2023-05-11T03:16:07.893Z,12.33
2023-05-11T03:18:36.357Z,15.30
2023-05-11T03:21:03.069Z,12.77
2023-05-11T03:23:30.783Z,13.00
2023-05-11T03:25:59.470Z,15.00
2023-05-11T03:28:28.118Z,13.37
2023-05-11T03:30:54.915Z,14.23
2023-05-11T03:33:21.847Z,12.30
2023-05-11T03:35:51.082Z,14.07
2023-05-11T03:38:21.407Z,12.97
2023-05-11T03:40:49.536Z,15.37
2023-05-11T03:43:19.396Z,14.10
2023-05-11T03:45:48.192Z,16.03
2023-05-11T03:48:16.799Z,16.93
2023-05-11T03:50:44.251Z,26.43
2023-05-11T03:53:11.907Z,53.90
2023-05-11T03:55:38.572Z,28.90
2023-05-11T03:58:09.768Z,24.07
2023-05-11T04:00:40.668Z,25.10
2023-05-11T04:03:09.522Z,22.03
2023-05-11T04:05:36.338Z,22.70
2023-05-11T04:08:03.844Z,23.53
2023-05-11T04:10:30.552Z,22.37
2023-05-11T04:12:57.413Z,22.93
2023-05-11T04:15:24.093Z,25.53
2023-05-11T04:17:50.700Z,29.30
2023-05-11T04:20:17.525Z,48.17
2023-05-11T04:22:44.568Z,23.33
2023-05-11T04:25:11.590Z,21.07
2023-05-11T04:27:38.204Z,21.67
2023-05-11T04:30:05.902Z,20.07
2023-05-11T04:32:32.649Z,23.87
2023-05-11T04:34:59.513Z,20.43
2023-05-11T04:37:26.430Z,21.10
2023-05-11T04:39:52.976Z,25.97
2023-05-11T04:42:19.573Z,17.47
2023-05-11T04:44:46.124Z,19.03
2023-05-11T04:47:12.701Z,19.67
2023-05-11T04:49:39.764Z,17.67
2023-05-11T04:52:06.561Z,17.23
2023-05-11T04:54:33.328Z,18.23
2023-05-11T04:56:59.987Z,15.77
2023-05-11T04:59:26.533Z,11.33
2023-05-11T05:01:53.114Z,11.67
2023-05-11T05:04:19.993Z,12.67
2023-05-11T05:06:46.686Z,13.27
2023-05-11T05:09:13.257Z,9.90
2023-05-11T05:11:39.857Z,11.77
2023-05-11T05:14:06.593Z,13.67
2023-05-11T05:16:33.256Z,72.97
2023-05-11T05:18:59.883Z,22.47
2023-05-11T05:21:26.799Z,15.87
2023-05-11T05:23:53.413Z,11.87
2023-05-11T05:26:20.053Z,13.40
2023-05-11T05:28:46.609Z,16.43
2023-05-11T05:31:13.284Z,14.97
2023-05-11T05:33:39.965Z,16.10
2023-05-11T05:36:08.414Z,15.93
2023-05-11T05:38:34.954Z,16.30
2023-05-11T05:41:05.355Z,14.90
2023-05-11T05:43:32.078Z,14.87
2023-05-11T05:45:58.752Z,14.77
2023-05-11T05:48:25.469Z,13.47
2023-05-11T05:50:52.350Z,14.27
2023-05-11T05:53:18.963Z,11.33
2023-05-11T05:55:45.544Z,10.50
2023-05-11T05:58:12.755Z,11.23
2023-05-11T06:00:39.401Z,7.83
2023-05-11T06:03:06.342Z,11.43
2023-05-11T06:05:33.019Z,10.40
2023-05-11T06:08:09.704Z,10.43
2023-05-11T06:10:37.213Z,10.80
2023-05-11T06:13:03.839Z,12.07
2023-05-11T06:15:30.683Z,12.53
2023-05-11T06:17:57.314Z,14.97
2023-05-11T06:20:24.404Z,12.37
2023-05-11T06:22:51.151Z,13.67
2023-05-11T06:25:17.903Z,11.83
2023-05-11T06:27:44.466Z,12.33
2023-05-11T06:30:11.446Z,13.63
2023-05-11T06:32:38.160Z,13.27
2023-05-11T06:35:05.316Z,13.63
2023-05-11T06:37:32.237Z,13.67
2023-05-11T06:39:59.359Z,14.03
2023-05-11T06:42:26.084Z,18.93
2023-05-11T06:44:52.701Z,17.60
2023-05-11T06:47:19.351Z,15.33
2023-05-11T06:49:45.905Z,19.50
2023-05-11T06:52:12.574Z,16.83
2023-05-11T06:54:39.206Z,16.00
2023-05-11T06:57:06.126Z,19.30
2023-05-11T06:59:32.696Z,14.20
2023-05-11T07:01:59.461Z,18.37
2023-05-11T07:04:26.289Z,17.73
2023-05-11T07:06:53.499Z,22.10
2023-05-11T07:09:20.113Z,15.40
2023-05-11T07:11:46.848Z,21.67
2023-05-11T07:14:13.440Z,21.47
2023-05-11T07:16:40.355Z,25.30
2023-05-11T07:19:08.696Z,19.93
2023-05-11T07:21:36.425Z,18.13
2023-05-11T07:24:04.078Z,19.07
2023-05-11T07:26:30.878Z,24.53
2023-05-11T07:28:57.473Z,18.97
2023-05-11T07:31:24.115Z,19.50
2023-05-11T07:33:50.862Z,17.70
2023-05-11T07:36:17.554Z,20.60
2023-05-11T07:38:44.245Z,20.30
2023-05-11T07:41:12.594Z,14.47
2023-05-11T07:43:39.450Z,19.07
2023-05-11T07:46:06.221Z,18.40
2023-05-11T07:48:32.949Z,21.60
2023-05-11T07:50:59.746Z,21.13
2023-05-11T07:53:26.376Z,17.63
2023-05-11T07:55:52.971Z,17.37
2023-05-11T07:58:19.579Z,18.13
2023-05-11T08:00:46.249Z,21.43
2023-05-11T08:03:13.332Z,19.63
2023-05-11T08:05:40.158Z,19.23
2023-05-11T08:08:06.805Z,16.67
2023-05-11T08:10:33.501Z,18.90
2023-05-11T08:13:00.299Z,17.77
2023-05-11T08:15:27.183Z,17.37
2023-05-11T08:17:54.247Z,15.93
2023-05-11T08:20:21.209Z,14.87
2023-05-11T08:22:47.836Z,15.77
2023-05-11T08:25:14.710Z,15.67
2023-05-11T08:27:41.314Z,17.07
2023-05-11T08:30:11.777Z,19.70
2023-05-11T08:32:57.160Z,14.57
2023-05-11T08:35:25.370Z,22.13
2023-05-11T08:37:52.112Z,17.73
2023-05-11T08:40:20.298Z,18.07
2023-05-11T08:42:48.933Z,21.63
2023-05-11T08:45:17.059Z,17.93
2023-05-11T08:47:45.319Z,19.50
2023-05-11T08:50:12.295Z,17.17
2023-05-11T08:52:38.986Z,16.47
2023-05-11T08:55:06.130Z,15.40
2023-05-11T08:57:35.333Z,17.93
2023-05-11T09:00:03.265Z,21.27
2023-05-11T09:02:31.158Z,19.83
2023-05-11T09:04:59.614Z,19.47
2023-05-11T09:07:27.095Z,19.63
2023-05-11T09:09:53.738Z,16.23
2023-05-11T09:12:20.813Z,15.63
2023-05-11T09:14:47.766Z,17.37
2023-05-11T09:17:14.704Z,18.73
2023-05-11T09:20:01.975Z,17.83
2023-05-11T09:22:31.045Z,17.40
2023-05-11T09:24:59.833Z,22.20
2023-05-11T09:27:26.402Z,26.93
2023-05-11T09:29:55.803Z,31.83
2023-05-11T09:32:22.583Z,22.17
2023-05-11T09:34:49.404Z,22.10
2023-05-11T09:37:19.647Z,18.53
2023-05-11T09:40:17.762Z,17.27
2023-05-11T09:42:32.925Z,16.27
2023-05-11T09:44:59.533Z,19.30
2023-05-11T09:47:27.727Z,21.33
2023-05-11T09:49:54.396Z,19.00
2023-05-11T09:52:21.331Z,21.63
2023-05-11T09:54:51.323Z,19.77
2023-05-11T09:57:29.540Z,17.23
2023-05-11T09:59:57.741Z,16.10
2023-05-11T10:02:25.529Z,18.30
2023-05-11T10:04:54.556Z,24.93
2023-05-11T10:07:24.642Z,19.87
2023-05-11T10:09:54.239Z,16.27
2023-05-11T10:12:24.068Z,17.90
2023-05-11T10:14:52.885Z,14.53
2023-05-11T10:17:20.249Z,18.83
2023-05-11T10:19:47.882Z,14.03
2023-05-11T10:22:16.197Z,15.00
2023-05-11T10:24:43.102Z,15.37
2023-05-11T10:27:12.356Z,19.40
2023-05-11T10:29:39.603Z,16.17
2023-05-11T10:32:08.209Z,15.17
2023-05-11T10:34:34.994Z,13.57
2023-05-11T10:37:02.765Z,14.13
2023-05-11T10:39:30.688Z,15.77
2023-05-11T10:42:09.960Z,14.50
2023-05-11T10:45:13.860Z,10.43
2023-05-11T10:48:01.630Z,12.70
2023-05-11T10:50:57.550Z,9.77
2023-05-11T10:53:48.840Z,9.33
2023-05-11T10:56:27.309Z,9.50
2023-05-11T10:58:59.875Z,11.10
2023-05-11T11:01:39.939Z,10.97
2023-05-11T11:04:09.648Z,13.03
2023-05-11T11:06:46.368Z,10.20
2023-05-11T11:09:16.046Z,10.37
2023-05-11T11:11:46.619Z,10.07
2023-05-11T11:14:18.061Z,10.07
2023-05-11T11:17:18.865Z,11.37
2023-05-11T11:19:46.169Z,8.67
2023-05-11T11:22:41.856Z,11.60
2023-05-11T11:25:10.042Z,10.50
2023-05-11T11:27:42.912Z,8.80
2023-05-11T11:30:28.816Z,9.33
2023-05-11T11:33:07.915Z,10.23
2023-05-11T11:35:43.696Z,9.13
2023-05-11T11:38:20.289Z,9.80
2023-05-11T11:40:55.055Z,8.83
2023-05-11T11:43:24.886Z,9.57
2023-05-11T11:46:01.986Z,10.10
2023-05-11T11:48:36.168Z,8.93
2023-05-11T11:51:10.869Z,8.13
2023-05-11T11:53:46.613Z,9.60
2023-05-11T11:56:16.323Z,12.57
2023-05-11T11:58:46.274Z,7.77
2023-05-11T12:01:14.592Z,8.10
2023-05-11T12:03:43.888Z,8.70
2023-05-11T12:06:12.352Z,8.07
2023-05-11T12:08:40.679Z,8.43
2023-05-11T12:11:07.982Z,9.10
2023-05-11T12:13:35.720Z,8.47
2023-05-11T12:16:13.232Z,8.60
2023-05-11T12:18:41.279Z,5.60
2023-05-11T12:21:19.450Z,8.30
2023-05-11T12:23:56.347Z,7.50
2023-05-11T12:26:24.808Z,8.90
2023-05-11T12:28:52.620Z,7.03
2023-05-11T12:31:19.555Z,6.28
2023-05-11T12:33:47.918Z,7.05
2023-05-11T12:36:18.919Z,6.07
2023-05-11T12:38:46.460Z,6.53
2023-05-11T12:41:20.188Z,6.85
2023-05-11T12:43:46.969Z,7.30
2023-05-11T12:46:13.802Z,8.63
2023-05-11T12:48:41.078Z,6.20
2023-05-11T12:51:07.800Z,6.28
2023-05-11T12:53:39.971Z,7.30
2023-05-11T12:56:07.333Z,9.00
2023-05-11T12:58:38.554Z,9.68
2023-05-11T13:01:06.970Z,10.40
2023-05-11T13:03:35.482Z,7.20
2023-05-11T13:06:09.590Z,12.95
2023-05-11T13:08:46.792Z,10.60
2023-05-11T13:11:22.600Z,6.05
2023-05-11T13:13:50.129Z,6.57
2023-05-11T13:16:31.999Z,6.82
2023-05-11T13:19:05.661Z,6.40
2023-05-11T13:21:33.641Z,9.55
2023-05-11T13:24:00.611Z,7.50
2023-05-11T13:26:32.271Z,7.10
2023-05-11T13:29:10.030Z,7.65
2023-05-11T13:31:47.969Z,5.93
2023-05-11T13:34:16.637Z,6.72
2023-05-11T13:36:43.715Z,6.43
2023-05-11T13:39:10.803Z,7.10
2023-05-11T13:41:37.439Z,6.28
2023-05-11T13:44:04.444Z,6.88
2023-05-11T13:46:31.111Z,6.55
2023-05-11T13:48:59.744Z,5.47
2023-05-11T13:51:26.364Z,4.78
2023-05-11T13:53:52.897Z,6.43
2023-05-11T13:56:21.353Z,7.63
2023-05-11T13:58:48.606Z,5.82
2023-05-11T14:01:15.286Z,6.53
2023-05-11T14:03:41.867Z,7.43
2023-05-11T14:06:08.569Z,4.72
2023-05-11T14:08:35.177Z,5.55
2023-05-11T14:11:01.778Z,6.25
2023-05-11T14:13:28.460Z,6.40
2023-05-11T14:15:55.108Z,5.85
2023-05-11T14:18:21.811Z,10.63
2023-05-11T14:20:48.541Z,7.20
2023-05-11T14:23:15.160Z,7.90
2023-05-11T14:25:41.908Z,7.45
2023-05-11T14:28:08.785Z,8.38
2023-05-11T14:30:35.427Z,7.50
2023-05-11T14:33:02.148Z,10.63
2023-05-11T14:35:28.741Z,11.80
2023-05-11T14:37:57.037Z,11.52
2023-05-11T14:40:23.740Z,9.27
2023-05-11T14:42:50.379Z,9.68
2023-05-11T14:45:17.138Z,10.13
2023-05-11T14:47:43.868Z,9.55
2023-05-11T14:50:10.618Z,9.02
2023-05-11T14:52:37.264Z,9.40
2023-05-11T14:55:04.002Z,8.10
2023-05-11T14:57:30.627Z,9.32
2023-05-11T15:00:00.097Z,8.70
2023-05-11T15:02:27.803Z,8.32
2023-05-11T15:04:55.192Z,6.20
2023-05-11T15:07:21.798Z,7.50
2023-05-11T15:09:48.535Z,7.13
2023-05-11T15:12:15.122Z,10.88
2023-05-11T15:14:41.686Z,6.15
2023-05-11T15:17:08.708Z,7.18
2023-05-11T15:19:35.339Z,7.97
2023-05-11T15:22:05.730Z,9.43
2023-05-11T15:24:32.547Z,7.18
2023-05-11T15:26:59.457Z,5.75
2023-05-11T15:29:26.164Z,6.78
2023-05-11T15:31:52.814Z,6.55
2023-05-11T15:34:19.522Z,12.07
2023-05-11T15:36:48.724Z,7.32
2023-05-11T15:39:17.222Z,8.02
2023-05-11T15:41:44.252Z,5.68
2023-05-11T15:44:10.961Z,6.00
2023-05-11T15:46:38.722Z,6.22
2023-05-11T15:49:06.336Z,8.55
2023-05-11T15:51:33.167Z,6.05
2023-05-11T15:53:59.909Z,6.03
2023-05-11T15:56:26.658Z,6.30
2023-05-11T15:58:53.213Z,8.15
2023-05-11T16:01:20.400Z,6.97
2023-05-11T16:03:47.165Z,7.35
2023-05-11T16:06:13.900Z,7.43
2023-05-11T16:08:41.679Z,6.60
2023-05-11T16:11:08.283Z,7.70
2023-05-11T16:13:34.912Z,7.50
2023-05-11T16:16:01.570Z,8.60
2023-05-11T16:18:28.814Z,7.78
2023-05-11T16:20:55.669Z,8.15
2023-05-11T16:23:25.668Z,13.10
2023-05-11T16:25:52.661Z,10.13
2023-05-11T16:28:20.620Z,10.98
2023-05-11T16:30:47.690Z,9.63
2023-05-11T16:33:14.636Z,12.18
2023-05-11T16:35:42.894Z,12.05
2023-05-11T16:38:20.283Z,11.32
2023-05-11T16:40:48.194Z,12.13
2023-05-11T16:43:14.869Z,12.98
2023-05-11T16:45:42.749Z,10.90
2023-05-11T16:48:09.417Z,13.67
2023-05-11T16:50:36.029Z,10.10
2023-05-11T16:53:03.617Z,13.02
2023-05-11T16:55:30.809Z,11.70
2023-05-11T16:57:57.505Z,53.17
2023-05-11T17:00:25.350Z,15.23
2023-05-11T17:02:51.985Z,12.57
2023-05-11T17:05:19.497Z,12.03
2023-05-11T17:07:46.967Z,11.87
2023-05-11T17:10:13.582Z,13.70
2023-05-11T17:12:40.538Z,13.23
2023-05-11T17:15:10.296Z,14.73
2023-05-11T17:17:38.324Z,13.57
2023-05-11T17:20:07.768Z,11.30
2023-05-11T17:22:36.078Z,9.73
2023-05-11T17:25:06.440Z,12.10
2023-05-11T17:27:35.582Z,14.83
2023-05-11T17:30:02.326Z,12.60
2023-05-11T17:32:29.620Z,15.03
2023-05-11T17:34:56.583Z,16.33
2023-05-11T17:37:31.240Z,14.03
2023-05-11T17:40:00.017Z,23.93
2023-05-11T17:42:27.067Z,17.33
2023-05-11T17:44:53.804Z,14.63
2023-05-11T17:47:20.542Z,13.20
2023-05-11T17:49:47.261Z,12.80
2023-05-11T17:52:13.801Z,17.93
2023-05-11T17:54:40.378Z,18.87
2023-05-11T17:57:06.998Z,15.13
2023-05-11T17:59:33.881Z,20.63
2023-05-11T18:02:00.697Z,18.07
2023-05-11T18:04:27.347Z,16.93
2023-05-11T18:06:53.973Z,14.43
2023-05-11T18:09:20.536Z,18.67
2023-05-11T18:11:47.233Z,16.17
2023-05-11T18:14:13.839Z,15.57
2023-05-11T18:16:40.434Z,15.63
2023-05-11T18:19:07.271Z,15.90
2023-05-11T18:21:34.915Z,15.97
2023-05-11T18:24:01.534Z,12.57
2023-05-11T18:26:28.200Z,14.97
2023-05-11T18:28:55.329Z,13.40
2023-05-11T18:31:22.297Z,13.67
2023-05-11T18:33:49.668Z,18.67
2023-05-11T18:36:16.308Z,13.83
2023-05-11T18:38:44.051Z,15.83
2023-05-11T18:41:10.983Z,15.93
2023-05-11T18:43:37.740Z,12.57
2023-05-11T18:46:08.762Z,14.93
2023-05-11T18:48:35.664Z,13.83
2023-05-11T18:51:02.353Z,15.60
2023-05-11T18:53:29.109Z,14.67
2023-05-11T18:55:56.313Z,13.80
2023-05-11T18:58:23.711Z,15.77
2023-05-11T19:00:51.544Z,11.87
2023-05-11T19:03:20.782Z,18.97
2023-05-11T19:05:48.904Z,31.20
2023-05-11T19:08:15.604Z,15.57
2023-05-11T19:10:45.318Z,16.37
2023-05-11T19:13:13.231Z,20.97
2023-05-11T19:15:40.445Z,12.60
2023-05-11T19:18:07.188Z,13.17
2023-05-11T19:20:34.705Z,12.23
2023-05-11T19:23:01.957Z,13.17
2023-05-11T19:25:28.650Z,14.83
2023-05-11T19:27:57.239Z,12.27
2023-05-11T19:30:24.830Z,11.87
2023-05-11T19:32:51.981Z,19.67
2023-05-11T19:35:19.194Z,13.70
2023-05-11T19:37:49.036Z,13.23
2023-05-11T19:40:44.744Z,13.43
2023-05-11T19:43:06.924Z,12.03
2023-05-11T19:45:34.281Z,13.20
2023-05-11T19:48:00.900Z,11.77
2023-05-11T19:50:28.088Z,11.03
2023-05-11T19:52:54.996Z,11.33
2023-05-11T19:55:21.728Z,15.00
2023-05-11T19:57:48.570Z,12.13
2023-05-11T20:00:18.279Z,13.77
2023-05-11T20:02:45.388Z,10.50
2023-05-11T20:05:12.118Z,9.93
2023-05-11T20:07:39.151Z,10.57
2023-05-11T20:10:06.353Z,9.90
2023-05-11T20:12:41.491Z,11.83
2023-05-11T20:15:08.949Z,16.73
2023-05-11T20:17:36.254Z,12.53
2023-05-11T20:20:03.937Z,10.60
2023-05-11T20:22:31.535Z,8.77
2023-05-11T20:24:58.121Z,11.07
2023-05-11T20:27:24.747Z,7.17
2023-05-11T20:29:51.447Z,6.47
2023-05-11T20:32:18.653Z,12.60
2023-05-11T20:34:45.196Z,6.03
2023-05-11T20:37:12.158Z,18.33
2023-05-11T20:39:38.791Z,14.00
2023-05-11T20:42:05.436Z,8.63
2023-05-11T20:44:32.242Z,10.27
2023-05-11T20:46:58.927Z,11.13
2023-05-11T20:49:37.767Z,11.60
2023-05-11T20:52:06.124Z,7.37
2023-05-11T20:54:35.124Z,10.87
2023-05-11T20:57:02.735Z,7.23
2023-05-11T21:02:01.328Z,5.90
2023-05-11T21:04:29.988Z,8.67
2023-05-11T21:06:56.603Z,4.90
2023-05-11T21:09:23.132Z,6.63
2023-05-11T21:11:49.735Z,6.23
2023-05-11T21:14:16.549Z,6.13
2023-05-11T21:16:43.138Z,6.77
2023-05-11T21:19:09.844Z,6.00
2023-05-11T21:21:36.578Z,9.77
2023-05-11T21:24:04.156Z,5.03
2023-05-11T21:26:30.812Z,7.77
2023-05-11T21:28:57.698Z,6.37
2023-05-11T21:31:24.555Z,11.03
2023-05-11T21:33:53.104Z,6.03
2023-05-11T21:36:19.760Z,5.83
2023-05-11T21:38:49.552Z,5.50
2023-05-11T21:41:18.488Z,6.40
2023-05-11T21:43:45.088Z,5.67
2023-05-11T21:46:14.703Z,4.97
2023-05-11T21:48:41.747Z,8.73
2023-05-11T21:51:09.229Z,6.37
2023-05-11T21:53:35.809Z,9.57
2023-05-11T21:56:02.402Z,6.53
2023-05-11T21:58:29.235Z,5.50
2023-05-11T22:00:57.158Z,6.93
2023-05-11T22:03:24.122Z,3.90
2023-05-11T22:05:51.149Z,7.50
2023-05-11T22:08:17.726Z,5.87
2023-05-11T22:10:44.303Z,5.67
2023-05-11T22:13:10.947Z,6.30
2023-05-11T22:15:37.635Z,7.47
2023-05-11T22:18:05.187Z,5.63
2023-05-11T22:20:32.063Z,6.30
2023-05-11T22:22:59.551Z,8.07
2023-05-11T22:25:26.734Z,8.90
2023-05-11T22:27:53.440Z,6.87
2023-05-11T22:30:20.504Z,6.13
2023-05-11T22:32:47.489Z,10.00
2023-05-11T22:35:14.233Z,6.73
2023-05-11T22:37:41.279Z,10.20
2023-05-11T22:40:08.907Z,7.03
2023-05-11T22:42:35.704Z,9.23
2023-05-11T22:45:02.357Z,9.37
2023-05-11T22:47:29.557Z,7.93
2023-05-11T22:49:56.452Z,9.07
2023-05-11T22:52:23.149Z,10.10
2023-05-11T22:54:58.083Z,7.37
2023-05-11T22:57:26.381Z,6.67
2023-05-11T22:59:52.961Z,8.27
2023-05-11T23:02:19.733Z,9.70
2023-05-11T23:04:52.004Z,5.57
2023-05-11T23:07:19.573Z,6.93
2023-05-11T23:09:46.410Z,6.10
2023-05-11T23:12:13.649Z,7.80
2023-05-11T23:14:40.284Z,7.90
2023-05-11T23:17:06.923Z,7.73
2023-05-11T23:19:33.874Z,7.37
2023-05-11T23:22:00.956Z,6.67
2023-05-11T23:24:29.025Z,5.97
2023-05-11T23:26:55.680Z,5.80
2023-05-11T23:29:22.307Z,7.87
2023-05-11T23:31:49.130Z,6.50
2023-05-11T23:34:15.964Z,7.17
2023-05-11T23:36:42.676Z,7.83
2023-05-11T23:39:09.762Z,7.07
2023-05-11T23:41:36.572Z,6.70
2023-05-11T23:44:03.409Z,6.73
2023-05-11T23:46:30.160Z,4.77
2023-05-11T23:48:56.778Z,7.57
2023-05-11T23:51:23.328Z,9.50
2023-05-11T23:53:50.050Z,7.73
2023-05-11T23:56:16.682Z,5.83
2023-05-11T23:58:45.899Z,8.67
